Time;durP1;ratioP1;P1;durP2;ratioP2;P2;SDS_P1;SDS_P2;PMS_P1;PMS_P2;Temp;Humidity;BMP_temperature;BMP_pressure;BME280_temperature;BME280_humidity;BME280_pressure;Samples;Min_cycle;Max_cycle;Signal;HPM_P1;HPM_P2
2023/04/30 00:03:04;;;;;;;2.85;1.90;;;;;;;14.02;83.00;99615.69;10368007;28;20125;-70
2023/04/30 00:08:04;;;;;;;3.42;1.85;;;;;;;13.45;83.11;99508.59;10367857;28;20062;-70
2023/04/30 00:13:05;;;;;;;3.47;2.20;;;;;;;13.95;83.34;99590.88;10367418;28;20066;-70
2023/04/30 00:18:06;;;;;;;2.85;2.17;;;;;;;13.88;83.39;99579.38;10367424;28;20473;-69
2023/04/30 00:23:07;;;;;;;3.72;2.53;;;;;;;13.66;83.47;99547.56;10367531;28;20129;-70
2023/04/30 00:28:07;;;;;;;3.33;2.17;;;;;;;13.76;83.84;99589.88;10367140;28;20045;-69
2023/04/30 00:33:08;;;;;;;5.03;2.58;;;;;;;13.69;83.69;99579.19;10511614;27;20036;-71
2023/04/30 00:38:09;;;;;;;4.43;3.25;;;;;;;13.11;83.91;99488.28;10622795;27;20054;-70
2023/04/30 00:43:10;;;;;;;5.03;3.55;;;;;;;13.57;84.04;99580.84;10622555;27;20039;-70
2023/04/30 00:48:11;;;;;;;5.32;4.35;;;;;;;13.49;84.00;99570.41;10622172;27;20039;-70
2023/04/30 00:53:12;;;;;;;5.80;4.32;;;;;;;13.15;84.23;99524.19;10621404;27;20151;-69
2023/04/30 00:58:13;;;;;;;6.15;4.20;;;;;;;13.30;84.32;99561.34;10622440;27;20043;-70
2023/04/30 01:03:13;;;;;;;8.48;4.68;;;;;;;13.21;84.96;99565.22;10629995;27;20081;-70
2023/04/30 01:08:14;;;;;;;5.53;4.57;;;;;;;13.18;84.94;99593.09;10631203;27;20039;-69
2023/04/30 01:13:29;;;;;;;5.85;4.10;;;;;;;12.65;86.07;99510.38;10629439;27;20065;-70
2023/04/30 01:18:40;;;;;;;4.97;3.83;;;;;;;13.25;85.73;99619.81;10629748;27;20050;-70
2023/04/30 01:24:00;;;;;;;5.65;4.45;;;;;;;13.22;86.16;99607.69;10629821;27;20482;-70
2023/04/30 01:29:03;;;;;;;5.68;4.10;;;;;;;13.17;85.23;99596.81;10629201;27;20433;-70
2023/04/30 01:34:04;;;;;;;6.72;4.95;;;;;;;13.11;85.39;99596.81;10628813;27;20052;-69
2023/04/30 01:39:20;;;;;;;9.02;4.82;;;;;;;13.11;86.07;99591.47;10628512;27;20035;-70
2023/04/30 01:44:39;;;;;;;6.68;5.13;;;;;;;12.96;85.52;99597.78;10628876;27;20035;-70
2023/04/30 01:49:46;;;;;;;6.22;4.57;;;;;;;13.11;85.53;99642.13;10629087;27;20130;-70
2023/04/30 01:55:04;;;;;;;6.60;4.78;;;;;;;12.55;85.53;99563.22;10628925;27;20047;-70
2023/04/30 02:00:09;;;;;;;6.28;4.25;;;;;;;12.61;85.29;99586.41;10626751;27;20047;-70
2023/04/30 02:05:10;;;;;;;4.97;3.65;;;;;;;13.03;85.26;99673.28;10627748;27;20046;-69
2023/04/30 02:10:11;;;;;;;5.70;3.75;;;;;;;12.82;85.29;99652.09;10627282;27;20035;-70
2023/04/30 02:15:12;;;;;;;4.78;3.58;;;;;;;12.41;85.68;99572.19;10627013;27;20091;-70
2023/04/30 02:20:13;;;;;;;4.65;4.13;;;;;;;12.89;85.89;99663.63;10626733;27;20083;-70
2023/04/30 02:25:14;;;;;;;5.10;4.13;;;;;;;12.78;85.47;99649.00;10626918;27;20043;-70
2023/04/30 02:30:14;;;;;;;5.25;4.32;;;;;;;12.44;85.32;99587.78;10626431;27;20035;-70
2023/04/30 02:35:15;;;;;;;7.28;4.85;;;;;;;12.96;85.60;99676.97;10627192;27;20134;-70
2023/04/30 02:40:16;;;;;;;8.45;4.68;;;;;;;12.83;84.79;99666.22;10626634;27;20110;-70
2023/04/30 02:45:17;;;;;;;6.82;5.32;;;;;;;12.85;85.29;99664.19;10626410;27;20398;-70
2023/04/30 02:50:18;;;;;;;7.40;5.20;;;;;;;12.81;85.31;99631.78;10626671;27;20047;-70
2023/04/30 02:55:18;;;;;;;5.75;5.10;;;;;;;12.70;85.30;99611.84;10625408;27;20043;-70
2023/04/30 03:00:19;;;;;;;6.05;5.25;;;;;;;12.86;85.34;99663.16;10626232;27;20759;-70
2023/04/30 03:05:20;;;;;;;6.95;5.90;;;;;;;12.86;85.37;99647.16;10625559;27;20096;-69
2023/04/30 03:10:21;;;;;;;8.32;6.47;;;;;;;12.78;85.51;99629.53;10625796;27;20027;-70
2023/04/30 03:15:22;;;;;;;8.18;6.35;;;;;;;12.91;85.27;99642.06;10624682;27;20039;-70
2023/04/30 03:20:22;;;;;;;7.45;5.90;;;;;;;12.95;84.98;99653.97;10457809;27;20049;-70
2023/04/30 03:25:23;;;;;;;8.15;6.03;;;;;;;12.77;85.12;99634.03;10408057;28;20045;-71
2023/04/30 03:30:24;;;;;;;7.43;5.90;;;;;;;12.51;85.48;99577.97;10408149;28;20041;-71
2023/04/30 03:35:25;;;;;;;7.53;6.72;;;;;;;12.60;85.00;99592.78;10408934;28;20064;-70
2023/04/30 03:40:26;;;;;;;9.45;6.80;;;;;;;12.34;85.36;99565.00;10408243;28;20419;-70
2023/04/30 03:45:26;;;;;;;8.60;7.30;;;;;;;12.82;85.03;99670.75;10408930;28;20041;-72
2023/04/30 03:50:27;;;;;;;9.85;8.00;;;;;;;12.88;85.56;99725.09;10407336;28;20057;-72
2023/04/30 03:55:28;;;;;;;8.25;7.25;;;;;;;12.86;85.49;99733.28;10407482;28;20132;-72
2023/04/30 04:00:29;;;;;;;7.30;6.10;;;;;;;12.77;85.54;99753.13;10408476;28;20050;-73
2023/04/30 04:05:30;;;;;;;10.45;5.97;;;;;;;12.94;85.89;99782.97;10408399;28;20037;-73
2023/04/30 04:10:32;;;;;;;7.15;6.32;;;;;;;13.01;85.92;99770.47;10407725;28;20041;-72
2023/04/30 04:29:28;;;;;;;7.35;6.10;;;;;;;13.46;89.67;99753.06;10442676;28;20480;-73
2023/04/30 04:51:38;;;;;;;8.75;7.75;;;;;;;13.31;91.37;99773.75;10477386;28;20461;-71
2023/04/30 04:56:39;;;;;;;8.32;7.43;;;;;;;13.27;89.96;99779.66;10441419;28;20407;-71
2023/04/30 05:01:40;;;;;;;8.02;7.22;;;;;;;13.33;89.29;99792.19;10440810;28;20128;-72
2023/04/30 05:06:41;;;;;;;8.77;7.88;;;;;;;13.13;89.24;99771.59;10441029;28;20041;-71
2023/04/30 05:11:43;;;;;;;7.97;7.18;;;;;;;13.45;88.86;99810.09;10440243;28;20037;-71
2023/04/30 05:16:44;;;;;;;9.93;7.82;;;;;;;13.44;88.22;99816.47;10440962;28;20488;-71
2023/04/30 05:21:45;;;;;;;10.48;7.75;;;;;;;13.46;87.84;99826.91;10420044;28;20042;-71
2023/04/30 05:26:46;;;;;;;7.75;5.60;;;;;;;13.42;87.59;99826.50;10399865;28;20473;-72
2023/04/30 05:31:47;;;;;;;6.97;5.00;;;;;;;13.41;88.55;99824.88;10399370;28;20072;-72
2023/04/30 05:36:48;;;;;;;7.85;5.15;;;;;;;13.47;89.56;99816.06;10399575;28;20038;-72
2023/04/30 05:41:49;;;;;;;5.97;4.70;;;;;;;13.38;89.45;99731.06;10398301;28;20048;-72
2023/04/30 05:46:50;;;;;;;6.25;4.55;;;;;;;13.83;89.48;99784.75;10398005;28;20042;-72
2023/04/30 05:51:51;;;;;;;5.13;3.90;;;;;;;14.06;89.31;99811.91;10375201;28;20042;-71
2023/04/30 05:56:51;;;;;;;5.25;3.92;;;;;;;13.98;88.80;99814.75;10370578;28;20042;-72
2023/04/30 06:01:52;;;;;;;7.25;4.22;;;;;;;13.78;88.04;99753.31;10370940;28;20129;-73
2023/04/30 06:06:53;;;;;;;8.40;4.53;;;;;;;14.37;87.35;99794.44;10368144;28;20041;-71
2023/04/30 06:11:54;;;;;;;5.55;4.35;;;;;;;14.78;86.33;99793.41;10370444;28;20042;-73
2023/04/30 06:16:55;;;;;;;6.20;3.90;;;;;;;15.07;84.76;99760.81;10365452;28;20558;-74
2023/04/30 06:21:56;;;;;;;5.13;4.00;;;;;;;15.59;82.91;99776.03;10369910;28;20102;-70
2023/04/30 06:26:57;;;;;;;4.78;3.95;;;;;;;16.09;81.01;99790.34;10362031;28;20107;-76
2023/04/30 06:31:57;;;;;;;6.03;4.40;;;;;;;16.78;77.52;99771.63;10371561;28;20233;-70
2023/04/30 06:36:58;;;;;;;5.57;3.60;;;;;;;16.94;75.13;99690.56;10372813;28;20049;-73
2023/04/30 06:41:59;;;;;;;4.75;3.80;;;;;;;17.42;73.46;99742.59;10338001;28;20035;-70
2023/04/30 06:47:00;;;;;;;4.40;3.50;;;;;;;17.60;72.39;99757.81;10343035;28;20416;-66
2023/04/30 06:52:01;;;;;;;5.68;4.00;;;;;;;17.85;70.05;99745.06;10360129;28;20052;-67
2023/04/30 06:57:02;;;;;;;9.88;4.38;;;;;;;17.58;68.65;99650.63;10331909;28;20042;-68
2023/04/30 07:02:03;;;;;;;19.80;4.18;;;;;;;17.71;67.74;99602.06;10350711;28;20034;-66
2023/04/30 07:07:04;;;;;;;4.80;2.78;;;;;;;18.34;66.68;99667.75;10336358;28;20408;-66
2023/04/30 07:12:04;;;;;;;4.35;2.30;;;;;;;18.63;65.18;99665.94;10365858;28;20226;-65
2023/04/30 07:17:05;;;;;;;3.97;2.10;;;;;;;18.67;64.55;99660.94;10390355;28;20046;-67
2023/04/30 07:22:06;;;;;;;8.93;2.75;;;;;;;18.40;63.90;99602.28;10346199;28;20081;-66
2023/04/30 07:27:07;;;;;;;2.03;1.20;;;;;;;19.02;62.64;99676.16;10345647;28;20047;-66
2023/04/30 07:32:07;;;;;;;2.25;1.02;;;;;;;19.12;62.27;99677.19;10343687;28;20046;-67
2023/04/30 07:37:09;;;;;;;2.53;0.90;;;;;;;19.34;60.96;99652.25;10341810;28;20046;-66
2023/04/30 07:42:10;;;;;;;1.65;0.70;;;;;;;19.76;59.30;99682.38;10349937;28;20046;-66
2023/04/30 07:47:11;;;;;;;1.00;0.50;;;;;;;19.70;58.64;99677.97;10341675;28;20475;-66
2023/04/30 07:52:12;;;;;;;2.20;0.75;;;;;;;20.10;58.12;99689.63;10355768;28;20056;-67
2023/04/30 07:57:12;;;;;;;2.30;0.95;;;;;;;20.19;57.60;99686.28;10367255;28;20065;-67
2023/04/30 08:02:13;;;;;;;3.97;0.90;;;;;;;20.43;57.29;99678.81;10367372;28;20044;-65
2023/04/30 08:07:17;;;;;;;2.65;0.73;;;;;;;20.76;56.73;99674.41;10345175;28;20490;-65
2023/04/30 08:12:17;;;;;;;;;;;;;;;21.45;56.46;99673.00;10326410;28;20537;-66
2023/04/30 08:17:18;;;;;;;0.73;0.32;;;;;;;21.16;55.04;99663.25;10326665;28;20019;-67
2023/04/30 08:22:19;;;;;;;12.70;1.75;;;;;;;21.16;54.76;99675.94;10325973;28;20042;-66
2023/04/30 08:27:20;;;;;;;4.78;0.95;;;;;;;20.93;55.06;99699.44;10278766;28;20065;-65
2023/04/30 08:32:21;;;;;;;1.42;0.60;;;;;;;20.75;55.33;99695.16;10285460;28;20038;-66
2023/04/30 08:37:22;;;;;;;1.75;0.50;;;;;;;20.95;54.77;99680.28;10285659;28;20046;-65
2023/04/30 08:42:31;;;;;;;1.42;0.50;;;;;;;20.38;53.90;99634.75;10285361;28;20050;-66
2023/04/30 08:47:32;;;;;;;1.67;0.50;;;;;;;20.68;54.33;99708.03;10284896;28;20084;-66
2023/04/30 08:52:37;;;;;;;1.88;0.60;;;;;;;20.19;53.92;99640.44;10285638;28;20046;-65
2023/04/30 08:57:38;;;;;;;3.20;0.68;;;;;;;20.57;54.42;99702.75;10285418;28;20062;-66
2023/04/30 09:02:43;;;;;;;1.63;0.52;;;;;;;20.40;53.96;99730.56;10285930;28;20043;-65
2023/04/30 09:07:46;;;;;;;4.57;1.63;;;;;;;19.96;55.07;99711.56;10284457;28;20126;-66
2023/04/30 09:13:06;;;;;;;1.40;0.50;;;;;;;19.98;55.13;99738.25;10284538;28;20130;-67
2023/04/30 09:18:17;;;;;;;1.58;0.50;;;;;;;19.80;55.49;99728.50;10285428;28;20481;-67
2023/04/30 09:23:17;;;;;;;1.50;0.40;;;;;;;19.45;56.07;99694.47;10284492;28;20047;-67
2023/04/30 09:28:28;;;;;;;3.95;0.65;;;;;;;19.13;56.03;99659.97;10290796;28;20050;-67
2023/04/30 09:33:45;;;;;;;2.22;0.52;;;;;;;19.51;56.47;99703.47;10291213;28;20046;-67
2023/04/30 09:38:46;;;;;;;3.30;0.70;;;;;;;19.60;56.27;99667.81;10290457;28;20038;-67
2023/04/30 09:43:46;;;;;;;4.70;1.02;;;;;;;19.89;55.80;99658.84;10291092;28;20042;-67
2023/04/30 09:48:57;;;;;;;8.68;1.08;;;;;;;19.96;55.32;99646.84;10301213;28;20055;-66
2023/04/30 09:54:01;;;;;;;2.15;0.40;;;;;;;19.72;55.99;99673.16;10315200;28;20046;-67
2023/04/30 09:59:04;;;;;;;3.38;0.40;;;;;;;19.61;55.95;99717.13;10290640;28;20092;-66
2023/04/30 10:04:05;;;;;;;1.40;0.30;;;;;;;19.33;56.59;99734.94;10293723;28;20039;-67
2023/04/30 10:09:08;;;;;;;2.05;0.50;;;;;;;19.28;56.70;99732.13;10327704;28;20053;-68
2023/04/30 10:14:15;;;;;;;1.25;0.40;;;;;;;19.38;56.71;99728.81;10306792;28;20042;-68
2023/04/30 10:19:21;;;;;;;1.35;0.30;;;;;;;18.72;56.78;99615.28;10315568;28;20047;-67
2023/04/30 10:24:22;;;;;;;1.00;0.40;;;;;;;19.33;57.20;99685.66;10288767;28;20047;-68
2023/04/30 10:29:23;;;;;;;2.40;0.68;;;;;;;19.08;56.72;99641.00;10298684;28;20043;-67
2023/04/30 10:35:08;;;;;;;2.05;0.73;;;;;;;19.62;56.60;99743.00;10288997;28;20043;-67
2023/04/30 10:40:10;;;;;;;19.08;5.45;;;;;;;18.74;56.98;99653.56;10244637;29;20043;-67
2023/04/30 10:45:11;;;;;;;6.43;0.70;;;;;;;18.98;57.99;99721.59;10285864;28;20058;-70
2023/04/30 10:50:12;;;;;;;5.40;2.08;;;;;;;18.69;58.89;99680.31;10305496;28;20063;-71
2023/04/30 10:55:16;;;;;;;6.38;2.75;;;;;;;18.56;59.60;99659.88;10297480;28;20042;-69
2023/04/30 11:00:18;;;;;;;3.28;1.15;;;;;;;18.36;60.76;99651.38;10322152;28;20099;-69
2023/04/30 11:05:19;;;;;;;3.78;1.63;;;;;;;17.77;62.35;99589.56;10306546;28;20047;-69
2023/04/30 11:10:22;;;;;;;7.70;4.68;;;;;;;18.05;63.71;99664.13;10289108;28;20521;-69
2023/04/30 11:15:30;;;;;;;7.20;1.20;;;;;;;17.73;64.81;99645.63;10298487;28;20137;-69
2023/04/30 11:20:31;;;;;;;1.90;0.70;;;;;;;17.70;64.67;99682.88;10327368;28;20463;-69
2023/04/30 11:25:45;;;;;;;2.78;1.17;;;;;;;17.51;66.07;99688.31;10328820;28;20095;-69
2023/04/30 11:52:53;;;;;;;1.48;0.45;;;;;;;17.55;65.52;99696.72;10474224;28;20445;-69
2023/04/30 11:57:55;;;;;;;2.58;0.40;;;;;;;17.62;65.22;99735.06;10440981;28;20096;-69
2023/04/30 12:02:59;;;;;;;1.38;0.32;;;;;;;17.38;65.21;99704.63;10440917;28;20131;-70
2023/04/30 12:08:05;;;;;;;;;;;;;;;17.55;64.62;99710.97;10438404;28;20120;-67
2023/04/30 12:13:06;;;;;;;2.72;1.00;;;;;;;17.24;65.16;99695.94;10409264;28;20437;-69
2023/04/30 12:18:12;;;;;;;3.53;0.80;;;;;;;17.22;66.00;99713.31;10408518;28;20049;-68
2023/04/30 12:23:13;;;;;;;1.15;0.50;;;;;;;17.11;66.13;99704.16;10415366;28;20056;-69
2023/04/30 12:28:14;;;;;;;3.10;1.00;;;;;;;16.35;66.03;99599.00;10402650;28;20045;-68
2023/04/30 12:33:16;;;;;;;5.15;1.10;;;;;;;17.05;66.38;99719.31;10399737;28;20386;-69
2023/04/30 12:38:17;;;;;;;4.18;1.00;;;;;;;16.93;66.53;99686.25;10399200;28;20049;-68
2023/04/30 12:43:18;;;;;;;6.95;0.68;;;;;;;16.58;66.25;99606.38;10395576;28;20038;-68
2023/04/30 12:48:23;;;;;;;1.60;0.50;;;;;;;16.89;66.48;99650.97;10398163;28;20062;-68
2023/04/30 12:53:24;;;;;;;1.65;0.35;;;;;;;16.76;66.82;99647.66;10364226;28;20047;-69
2023/04/30 12:58:29;;;;;;;5.97;1.70;;;;;;;16.72;67.84;99663.34;10291092;28;20042;-69
2023/04/30 13:03:30;;;;;;;3.42;1.67;;;;;;;16.25;67.36;99605.94;10290851;28;20047;-69
2023/04/30 13:08:31;;;;;;;3.97;0.60;;;;;;;16.54;67.69;99682.94;10290332;28;20062;-68
2023/04/30 13:13:32;;;;;;;3.28;0.60;;;;;;;16.56;67.77;99693.44;10289688;28;20480;-68
2023/04/30 13:18:33;;;;;;;10.50;1.73;;;;;;;16.58;67.71;99712.81;10290076;28;20047;-68
2023/04/30 13:23:33;;;;;;;4.97;2.00;;;;;;;16.51;68.15;99722.75;10290606;28;20486;-68
2023/04/30 13:47:25;;;;;;;2.63;0.80;;;;;;;16.64;68.65;99671.69;10474785;28;20411;-67
2023/04/30 13:52:26;;;;;;;6.05;0.77;;;;;;;16.16;69.01;99629.53;10439823;28;20049;-69
2023/04/30 13:57:28;;;;;;;2.05;0.57;;;;;;;16.01;68.93;99650.50;10440879;28;20090;-68
2023/04/30 14:02:29;;;;;;;4.78;1.20;;;;;;;16.32;69.07;99748.72;10440983;28;20049;-68
2023/04/30 14:07:31;;;;;;;3.90;1.10;;;;;;;16.36;69.23;99769.53;10440455;28;20044;-68
2023/04/30 14:12:32;;;;;;;4.53;0.90;;;;;;;16.29;69.67;99760.72;10438173;28;20049;-68
2023/04/30 14:17:33;;;;;;;2.17;1.00;;;;;;;16.27;69.89;99759.28;10439871;28;20048;-70
2023/04/30 14:22:37;;;;;;;4.05;0.70;;;;;;;16.22;70.17;99767.19;10438701;28;20045;-67
2023/04/30 14:27:39;;;;;;;1.13;0.40;;;;;;;16.21;70.48;99798.50;10440774;28;20120;-68
2023/04/30 14:32:39;;;;;;;3.10;0.77;;;;;;;16.01;70.89;99792.47;10440270;28;20041;-67
2023/04/30 14:37:40;;;;;;;1.30;0.47;;;;;;;16.09;71.12;99833.19;10400168;28;20480;-68
2023/04/30 14:42:41;;;;;;;0.88;0.32;;;;;;;16.02;71.20;99839.66;10418031;27;20073;-68
2023/04/30 14:47:42;;;;;;;2.15;0.50;;;;;;;15.60;71.47;99783.00;10416314;28;20045;-68
2023/04/30 14:52:43;;;;;;;7.82;4.93;;;;;;;16.05;71.53;99864.16;10412169;28;20449;-68
2023/04/30 14:57:44;;;;;;;3.83;1.10;;;;;;;16.05;71.31;99857.97;10411596;28;20041;-67
2023/04/30 15:02:45;;;;;;;7.57;1.55;;;;;;;16.01;71.47;99872.84;10408150;28;20033;-67
2023/04/30 15:07:45;;;;;;;2.72;1.00;;;;;;;15.98;71.62;99871.44;10412057;28;20037;-68
2023/04/30 15:12:46;;;;;;;1.98;0.82;;;;;;;15.43;71.42;99791.53;10411446;28;20101;-68
2023/04/30 15:17:47;;;;;;;3.70;1.17;;;;;;;15.91;71.24;99874.16;10411295;28;20455;-68
2023/04/30 15:22:53;;;;;;;13.40;6.80;;;;;;;15.87;71.80;99874.78;10411422;28;20052;-68
2023/04/30 15:27:54;;;;;;;30.48;14.88;;;;;;;15.72;71.60;99858.97;10409185;28;20041;-67
2023/04/30 15:32:55;;;;;;;5.93;2.58;;;;;;;15.78;71.61;99860.81;10409740;28;20041;-67
2023/04/30 15:37:56;;;;;;;6.68;1.63;;;;;;;15.78;71.56;99849.28;10426676;27;20042;-67
2023/04/30 15:42:57;;;;;;;2.53;0.68;;;;;;;15.75;71.65;99842.50;10409790;28;20061;-67
2023/04/30 15:47:59;;;;;;;2.63;0.60;;;;;;;15.56;71.96;99830.00;10410010;28;20500;-67
2023/04/30 15:53:00;;;;;;;1.80;0.77;;;;;;;15.58;71.85;99857.34;10409800;28;20136;-67
2023/04/30 15:58:00;;;;;;;3.25;1.10;;;;;;;15.48;72.42;99842.56;10409596;28;20488;-67
2023/04/30 16:03:01;;;;;;;3.60;1.23;;;;;;;15.56;72.81;99851.41;10410098;28;20037;-67
2023/04/30 16:08:02;;;;;;;1.35;0.70;;;;;;;14.61;73.38;99710.16;10407409;28;20128;-68
2023/04/30 16:13:03;;;;;;;1.98;0.50;;;;;;;15.39;73.88;99870.59;10286723;28;20055;-67
2023/04/30 16:18:04;;;;;;;1.40;0.50;;;;;;;15.19;74.08;99872.53;10286257;28;20555;-66
2023/04/30 16:23:04;;;;;;;2.03;0.63;;;;;;;14.67;74.44;99818.91;10287958;28;20038;-66
2023/04/30 16:28:05;;;;;;;3.20;1.00;;;;;;;15.08;74.58;99914.13;10286622;28;20449;-66
2023/04/30 16:33:07;;;;;;;1.70;0.77;;;;;;;15.01;74.89;99927.47;10287693;28;20526;-67
2023/04/30 16:38:07;;;;;;;6.43;3.17;;;;;;;15.01;74.86;99926.66;10287582;28;20046;-67
2023/04/30 16:43:08;;;;;;;4.90;2.22;;;;;;;14.97;74.88;99926.25;10286485;28;20066;-67
2023/04/30 16:53:33;;;;;;;5.10;0.85;;;;;;;14.63;75.44;99881.84;10294895;23;20074;-67
2023/04/30 16:58:34;;;;;;;2.45;0.80;;;;;;;14.56;75.82;99897.88;10213165;29;20495;-68
2023/04/30 17:03:35;;;;;;;7.63;5.88;;;;;;;13.70;76.40;99764.22;10212284;29;20047;-68
2023/04/30 17:08:36;;;;;;;3.40;1.80;;;;;;;14.30;76.70;99874.59;10210681;29;20058;-67
2023/04/30 17:13:37;;;;;;;3.03;1.10;;;;;;;14.38;77.34;99908.31;10286418;28;20055;-67
2023/04/30 17:18:37;;;;;;;4.57;1.20;;;;;;;14.27;77.82;99892.88;10292081;28;20039;-67
2023/04/30 17:28:48;;;;;;;2.67;1.10;;;;;;;14.07;78.54;99872.31;11195421;23;20081;-68
2023/04/30 17:33:49;;;;;;;3.67;1.45;;;;;;;14.02;79.14;99884.59;10289993;28;20047;-67
2023/04/30 17:38:50;;;;;;;1.27;0.75;;;;;;;14.05;79.67;99908.25;10290079;28;20101;-67
2023/04/30 17:43:51;;;;;;;2.75;1.10;;;;;;;14.01;80.32;99899.00;10288197;28;20061;-69
2023/04/30 17:48:51;;;;;;;3.83;1.08;;;;;;;13.93;80.66;99903.47;10291488;28;20047;-67
2023/04/30 17:53:52;;;;;;;2.67;1.00;;;;;;;13.93;81.02;99905.31;10289875;28;20035;-68
2023/04/30 17:58:54;;;;;;;2.63;0.90;;;;;;;13.94;81.71;99917.69;10290088;28;20037;-68
2023/04/30 18:03:58;;;;;;;3.35;1.10;;;;;;;13.67;82.60;99858.00;10289402;28;20046;-67
2023/04/30 18:09:00;;;;;;;3.35;1.20;;;;;;;14.13;81.84;99918.75;10290932;28;20039;-69
2023/04/30 18:14:03;;;;;;;3.97;1.00;;;;;;;14.11;81.76;99931.47;10290710;28;20495;-69
2023/04/30 18:19:04;;;;;;;4.80;1.30;;;;;;;13.96;82.52;99917.47;10290448;28;20517;-68
2023/04/30 18:24:04;;;;;;;5.05;1.85;;;;;;;13.92;82.77;99906.38;10290547;28;20086;-69
2023/04/30 18:29:06;;;;;;;3.85;1.20;;;;;;;13.96;82.68;99902.25;10298454;28;20062;-69
2023/04/30 18:34:07;;;;;;;1.85;0.90;;;;;;;14.07;82.70;99899.00;10298151;28;20050;-69
2023/04/30 18:39:11;;;;;;;3.05;1.17;;;;;;;13.82;82.86;99871.19;10297253;28;20118;-69
2023/04/30 18:44:12;;;;;;;5.80;1.17;;;;;;;13.55;82.72;99832.91;10297723;28;20034;-69
2023/04/30 18:49:13;;;;;;;2.38;1.25;;;;;;;13.82;83.18;99865.84;10297516;28;20043;-69
2023/04/30 18:54:13;;;;;;;4.70;1.40;;;;;;;13.87;83.38;99876.75;10295360;28;20039;-68
2023/04/30 18:59:15;;;;;;;5.63;1.52;;;;;;;13.87;83.37;99890.13;10286393;28;20146;-69
2023/04/30 19:04:16;;;;;;;5.45;1.70;;;;;;;13.47;83.71;99824.06;10295971;28;20124;-69
2023/04/30 19:09:17;;;;;;;6.68;2.20;;;;;;;13.91;83.95;99886.03;10294898;28;20043;-69
2023/04/30 19:14:17;;;;;;;4.70;2.08;;;;;;;13.84;84.29;99893.19;10296735;28;20038;-69
2023/04/30 19:19:18;;;;;;;3.92;1.92;;;;;;;13.29;84.65;99812.31;10295605;28;20038;-69
2023/04/30 19:24:20;;;;;;;3.08;1.70;;;;;;;13.22;84.72;99813.06;10295487;28;20050;-71
2023/04/30 19:29:21;;;;;;;9.55;2.33;;;;;;;13.78;84.89;99916.16;10294994;28;20051;-69
2023/04/30 19:48:23;;;;;;;3.33;1.50;;;;;;;13.96;86.43;99920.94;10451035;28;20404;-69
2023/04/30 19:53:26;;;;;;;2.78;1.40;;;;;;;13.67;86.02;99888.22;10441507;28;20069;-69
2023/04/30 19:58:27;;;;;;;2.50;1.40;;;;;;;13.75;85.62;99915.75;10440845;28;20089;-67
2023/04/30 20:03:28;;;;;;;4.28;1.50;;;;;;;13.77;85.46;99935.06;10440745;28;20106;-69
2023/04/30 20:08:28;;;;;;;4.55;1.15;;;;;;;13.77;85.28;99949.22;10440980;28;20029;-69
2023/04/30 20:13:29;;;;;;;2.92;1.33;;;;;;;13.63;85.37;99943.00;10440770;28;20045;-69
2023/04/30 20:18:31;;;;;;;7.30;1.60;;;;;;;13.65;85.67;99969.50;10441078;28;20037;-69
2023/04/30 20:23:31;;;;;;;5.63;1.77;;;;;;;13.20;85.67;99907.63;10440345;28;20056;-69
2023/04/30 20:28:32;;;;;;;6.50;2.05;;;;;;;13.23;86.19;99937.41;10440070;28;20052;-69
2023/04/30 20:33:33;;;;;;;4.28;2.08;;;;;;;13.53;86.06;99982.56;10439387;28;20526;-69
2023/04/30 20:38:34;;;;;;;9.63;2.00;;;;;;;13.46;86.08;99958.50;10401289;28;20436;-69
2023/04/30 20:43:35;;;;;;;5.85;2.40;;;;;;;13.50;85.95;99971.47;10398158;28;20507;-69
2023/04/30 20:48:36;;;;;;;4.40;2.47;;;;;;;13.42;86.20;99948.41;10375764;28;20075;-69
2023/04/30 21:17:00;;;;;;;2.70;1.60;;;;;;;13.79;84.21;99957.03;10440894;28;20404;-69
2023/04/30 21:22:01;;;;;;;4.00;1.52;;;;;;;13.22;83.70;99895.75;10440742;28;20046;-69
2023/04/30 21:27:03;;;;;;;4.88;1.40;;;;;;;13.07;83.88;99899.53;10440861;28;20106;-69
2023/04/30 21:32:04;;;;;;;4.07;1.40;;;;;;;13.42;83.67;99959.91;10441410;28;20086;-69
2023/04/30 21:37:04;;;;;;;3.88;1.48;;;;;;;12.98;83.70;99896.19;10440956;28;20407;-69
2023/04/30 21:42:05;;;;;;;3.67;1.45;;;;;;;12.74;84.33;99868.13;10440440;28;20037;-69
2023/04/30 21:47:09;;;;;;;3.40;1.48;;;;;;;12.84;84.41;99899.78;10440641;28;20049;-69
2023/04/30 21:52:10;;;;;;;4.75;1.38;;;;;;;13.10;84.47;99964.00;10440656;28;20046;-69
2023/04/30 21:57:11;;;;;;;3.70;1.33;;;;;;;13.28;84.60;99984.03;10440738;28;20045;-69
2023/04/30 22:02:13;;;;;;;3.90;1.45;;;;;;;13.29;84.80;99989.19;10440268;28;20034;-69
2023/04/30 22:07:14;;;;;;;3.90;1.73;;;;;;;13.35;84.94;100003.59;10439948;28;20535;-69
2023/04/30 22:12:17;;;;;;;4.97;1.55;;;;;;;13.36;84.52;100003.38;10439697;28;20120;-69
2023/04/30 22:17:18;;;;;;;5.07;1.77;;;;;;;13.16;84.86;99991.69;10415659;28;20048;-69
2023/04/30 22:22:19;;;;;;;3.60;1.50;;;;;;;13.24;85.35;100016.38;10412650;28;20511;-69
2023/04/30 22:27:20;;;;;;;2.97;1.30;;;;;;;13.23;85.47;100009.41;10403344;28;20042;-69
2023/04/30 22:32:21;;;;;;;4.05;1.30;;;;;;;13.17;85.89;100002.19;10370531;28;20069;-69
2023/04/30 22:37:23;;;;;;;3.30;1.38;;;;;;;13.00;85.79;99988.28;10371321;28;20080;-69
2023/04/30 22:42:24;;;;;;;4.40;1.63;;;;;;;12.75;86.44;99963.91;10370626;28;20053;-68
2023/04/30 22:47:26;;;;;;;6.20;1.63;;;;;;;12.96;86.95;100004.88;10371070;28;20400;-68
2023/04/30 22:52:31;;;;;;;3.63;1.27;;;;;;;12.63;87.37;99960.09;10369902;28;20046;-69
2023/04/30 22:57:32;;;;;;;3.67;1.58;;;;;;;12.56;86.80;99937.88;10370374;28;20074;-69
2023/04/30 23:02:33;;;;;;;4.78;1.60;;;;;;;12.96;87.26;99994.22;10369913;28;20096;-68
2023/04/30 23:07:34;;;;;;;3.08;1.40;;;;;;;12.60;87.32;99943.66;10369944;28;20046;-69
2023/04/30 23:12:34;;;;;;;3.53;1.70;;;;;;;12.89;88.23;100006.66;10369303;28;20110;-69
2023/04/30 23:17:35;;;;;;;4.05;1.42;;;;;;;12.92;88.48;100020.44;10368024;28;20042;-68
2023/04/30 23:22:36;;;;;;;4.90;1.60;;;;;;;12.43;87.94;99933.25;10370195;28;20132;-69
2023/04/30 23:27:37;;;;;;;3.95;1.50;;;;;;;12.86;88.55;100021.19;10368280;28;20045;-69
2023/04/30 23:32:38;;;;;;;3.83;1.63;;;;;;;12.90;88.67;100034.97;10368703;28;20120;-69
2023/04/30 23:37:39;;;;;;;10.52;1.90;;;;;;;12.89;88.79;100050.16;10369741;28;20503;-69
2023/04/30 23:42:40;;;;;;;3.50;1.58;;;;;;;12.79;89.44;100039.78;10368299;28;20144;-69
2023/04/30 23:47:41;;;;;;;4.25;1.80;;;;;;;12.92;89.66;100060.44;10368283;28;20038;-69
2023/04/30 23:52:42;;;;;;;2.97;1.55;;;;;;;12.85;89.88;100042.72;10368596;28;20045;-70
2023/04/30 23:57:42;;;;;;;5.25;1.65;;;;;;;12.94;90.54;100078.91;10368238;28;20424;-68
